createdAt,value
2023-05-03T00:00:35.897Z,2.20
2023-05-03T00:05:40.041Z,1.95
2023-05-03T00:10:45.393Z,2.42
2023-05-03T00:15:49.073Z,1.65
2023-05-03T00:20:55.050Z,1.88
2023-05-03T00:26:00.731Z,1.77
2023-05-03T00:36:15.438Z,2.00
2023-05-03T00:41:20.173Z,2.47
2023-05-03T00:46:23.529Z,2.03
2023-05-03T00:51:28.860Z,2.00
2023-05-03T00:56:47.878Z,2.03
2023-05-03T01:01:55.340Z,2.38
2023-05-03T01:07:10.829Z,2.50
2023-05-03T01:12:25.309Z,2.47
2023-05-03T01:17:31.573Z,2.60
2023-05-03T01:22:44.142Z,2.92
2023-05-03T01:27:49.169Z,2.65
2023-05-03T01:33:01.583Z,2.55
2023-05-03T01:38:06.528Z,2.58
2023-05-03T01:43:13.753Z,3.10
2023-05-03T01:48:18.773Z,2.72
2023-05-03T01:53:22.565Z,3.05
2023-05-03T01:58:27.776Z,3.08
2023-05-03T02:03:31.408Z,2.72
2023-05-03T02:08:35.120Z,2.95
2023-05-03T02:13:40.627Z,3.58
2023-05-03T02:18:44.967Z,2.95
2023-05-03T02:23:48.258Z,3.08
2023-05-03T02:28:52.962Z,3.28
2023-05-03T02:33:56.732Z,3.40
2023-05-03T02:39:00.450Z,2.90
2023-05-03T02:44:05.768Z,3.55
2023-05-03T02:49:09.776Z,3.88
2023-05-03T02:54:13.069Z,3.45
2023-05-03T02:59:17.879Z,3.72
2023-05-03T03:04:21.272Z,3.40
2023-05-03T03:09:24.612Z,3.47
2023-05-03T03:14:29.651Z,3.65
2023-05-03T03:19:33.058Z,4.07
2023-05-03T03:24:38.659Z,4.30
2023-05-03T03:29:43.816Z,3.80
2023-05-03T03:34:49.982Z,3.17
2023-05-03T03:39:54.426Z,3.47
2023-05-03T03:45:00.339Z,3.25
2023-05-03T03:50:04.235Z,3.08
2023-05-03T03:55:09.764Z,3.17
2023-05-03T04:00:16.203Z,3.95
2023-05-03T04:05:25.979Z,3.33
2023-05-03T04:10:30.807Z,3.40
2023-05-03T04:15:35.847Z,3.83
2023-05-03T04:20:41.318Z,4.10
2023-05-03T04:25:48.986Z,3.30
2023-05-03T04:30:59.210Z,3.25
2023-05-03T04:36:04.662Z,2.90
2023-05-03T04:41:09.242Z,2.67
2023-05-03T04:46:15.672Z,2.92
2023-05-03T04:51:19.033Z,2.90
2023-05-03T04:56:26.427Z,2.75
2023-05-03T05:01:37.096Z,2.60
2023-05-03T05:06:42.780Z,2.80
2023-05-03T05:11:50.525Z,3.35
2023-05-03T05:16:55.948Z,2.45
2023-05-03T05:21:59.392Z,3.10
2023-05-03T05:27:12.871Z,3.20
2023-05-03T05:32:17.944Z,3.28
2023-05-03T05:37:21.482Z,2.60
2023-05-03T05:42:25.572Z,2.22
2023-05-03T05:47:30.495Z,2.95
2023-05-03T05:52:35.477Z,2.15
2023-05-03T05:57:40.582Z,2.27
2023-05-03T06:02:46.783Z,2.92
2023-05-03T06:07:54.419Z,2.20
2023-05-03T06:12:58.629Z,2.25
2023-05-03T06:18:05.682Z,2.05
2023-05-03T06:23:09.396Z,2.00
2023-05-03T06:28:14.280Z,2.60
2023-05-03T06:33:19.349Z,2.50
2023-05-03T06:38:26.905Z,2.63
2023-05-03T06:43:30.683Z,2.60
2023-05-03T06:48:40.381Z,2.45
2023-05-03T06:53:43.655Z,2.80
2023-05-03T06:58:46.831Z,2.88
2023-05-03T07:03:51.629Z,2.08
2023-05-03T07:08:55.372Z,2.37
2023-05-03T07:13:58.605Z,3.83
2023-05-03T07:19:03.304Z,2.30
2023-05-03T07:24:07.948Z,2.03
2023-05-03T07:29:11.551Z,1.90
2023-05-03T07:34:16.463Z,2.78
2023-05-03T07:39:19.800Z,2.15
2023-05-03T07:44:23.886Z,2.25
2023-05-03T07:49:28.959Z,2.30
2023-05-03T07:54:32.700Z,2.20
2023-05-03T07:59:36.307Z,1.77
2023-05-03T08:04:41.668Z,2.88
2023-05-03T08:14:49.065Z,2.50
2023-05-03T08:19:56.568Z,1.60
2023-05-03T08:25:00.612Z,1.70
2023-05-03T08:30:05.428Z,1.60
2023-05-03T08:35:13.873Z,1.60
2023-05-03T08:40:17.144Z,2.25
2023-05-03T08:45:20.402Z,3.75
2023-05-03T08:50:27.045Z,3.80
2023-05-03T08:55:30.283Z,5.80
2023-05-03T09:00:33.567Z,2.72
2023-05-03T09:05:41.424Z,2.47
2023-05-03T09:10:44.794Z,2.38
2023-05-03T09:15:55.381Z,2.03
2023-05-03T09:21:00.180Z,2.63
2023-05-03T09:26:03.572Z,2.70
2023-05-03T09:31:10.178Z,2.13
2023-05-03T09:36:15.923Z,2.25
2023-05-03T09:41:28.986Z,2.22
2023-05-03T09:46:33.318Z,2.00
2023-05-03T09:51:41.301Z,2.30
2023-05-03T09:56:47.295Z,1.90
2023-05-03T10:01:51.959Z,2.65
2023-05-03T10:07:00.878Z,2.15
2023-05-03T10:12:08.341Z,2.22
2023-05-03T10:17:17.899Z,2.35
2023-05-03T10:22:22.745Z,2.83
2023-05-03T10:27:26.212Z,2.37
2023-05-03T10:32:34.452Z,1.70
2023-05-03T10:37:42.521Z,2.47
2023-05-03T10:42:46.994Z,2.75
2023-05-03T10:48:20.824Z,2.92
2023-05-03T10:53:40.600Z,2.30
2023-05-03T10:58:45.702Z,2.63
2023-05-03T11:03:57.066Z,2.20
2023-05-03T11:09:04.156Z,2.00
2023-05-03T11:14:07.538Z,2.08
2023-05-03T11:19:11.598Z,2.88
2023-05-03T11:24:16.220Z,2.63
2023-05-03T11:29:21.053Z,1.97
2023-05-03T11:34:25.064Z,1.83
2023-05-03T11:39:30.725Z,1.73
2023-05-03T11:44:34.051Z,1.83
2023-05-03T11:49:37.317Z,1.83
2023-05-03T11:54:41.901Z,2.10
2023-05-03T11:59:45.736Z,1.83
2023-05-03T12:04:49.265Z,3.08
2023-05-03T12:10:06.340Z,3.60
2023-05-03T12:15:27.762Z,1.30
2023-05-03T12:25:42.873Z,1.75
2023-05-03T12:30:48.024Z,2.00
2023-05-03T12:35:53.341Z,2.85
2023-05-03T12:40:58.914Z,1.92
2023-05-03T12:46:25.187Z,1.67
2023-05-03T12:51:27.920Z,1.88
2023-05-03T12:56:39.403Z,1.60
2023-05-03T13:06:57.882Z,1.67
2023-05-03T13:12:04.330Z,1.40
2023-05-03T13:17:08.337Z,1.63
2023-05-03T13:22:13.297Z,1.98
2023-05-03T13:27:18.954Z,1.60
2023-05-03T13:32:22.992Z,1.92
2023-05-03T13:37:27.100Z,1.90
2023-05-03T13:42:31.783Z,1.95
2023-05-03T13:47:59.989Z,2.33
2023-05-03T13:52:58.621Z,3.67
2023-05-03T13:58:03.650Z,1.98
2023-05-03T14:03:07.845Z,1.92
2023-05-03T14:08:11.325Z,1.80
2023-05-03T14:13:16.443Z,2.05
2023-05-03T14:18:19.909Z,2.35
2023-05-03T14:23:24.490Z,1.73
2023-05-03T14:28:29.118Z,2.08
2023-05-03T14:33:32.794Z,1.70
2023-05-03T14:38:35.991Z,1.90
2023-05-03T14:43:40.592Z,2.10
2023-05-03T14:48:43.811Z,1.97
2023-05-03T14:53:47.029Z,1.60
2023-05-03T14:58:51.817Z,2.53
2023-05-03T15:03:54.998Z,1.90
2023-05-03T15:08:58.275Z,1.45
2023-05-03T15:14:02.991Z,1.67
2023-05-03T15:19:07.422Z,1.55
2023-05-03T15:24:11.129Z,1.75
2023-05-03T15:29:16.481Z,1.63
2023-05-03T15:39:24.577Z,1.73
2023-05-03T15:44:29.519Z,2.00
2023-05-03T15:49:33.113Z,2.10
2023-05-03T15:54:36.695Z,2.05
2023-05-03T15:59:41.660Z,1.85
2023-05-03T16:04:45.698Z,1.63
2023-05-03T16:09:49.651Z,1.65
2023-05-03T16:14:55.623Z,1.90
2023-05-03T16:19:58.818Z,1.38
2023-05-03T16:25:02.081Z,2.15
2023-05-03T16:30:08.131Z,1.33
2023-05-03T16:35:11.754Z,2.25
2023-05-03T16:40:15.088Z,1.52
2023-05-03T16:45:20.317Z,1.70
2023-05-03T16:50:23.980Z,1.42
2023-05-03T16:55:27.750Z,1.42
2023-05-03T17:00:33.208Z,1.48
2023-05-03T17:05:36.973Z,1.30
2023-05-03T17:10:40.581Z,1.55
2023-05-03T17:15:45.562Z,1.67
2023-05-03T17:25:59.057Z,1.58
2023-05-03T17:31:04.690Z,1.17
2023-05-03T17:36:08.473Z,1.20
2023-05-03T17:41:12.665Z,1.20
2023-05-03T17:46:18.110Z,1.33
2023-05-03T17:51:22.130Z,1.45
2023-05-03T17:56:25.938Z,1.20
2023-05-03T18:01:30.637Z,1.60
2023-05-03T18:06:34.601Z,3.30
2023-05-03T18:11:38.272Z,1.73
2023-05-03T18:16:43.907Z,1.45
2023-05-03T18:21:47.758Z,1.70
2023-05-03T18:26:51.378Z,1.35
2023-05-03T18:31:57.739Z,1.40
2023-05-03T18:37:01.426Z,1.60
2023-05-03T18:42:05.155Z,1.70
2023-05-03T18:47:13.337Z,1.80
2023-05-03T18:52:17.125Z,2.03
2023-05-03T18:57:22.699Z,1.58
2023-05-03T19:07:35.512Z,1.52
2023-05-03T19:12:40.776Z,2.03
2023-05-03T19:17:47.368Z,3.13
2023-05-03T19:22:51.008Z,2.15
2023-05-03T19:27:54.589Z,1.73
2023-05-03T19:32:59.438Z,2.28
2023-05-03T19:38:02.950Z,1.73
2023-05-03T19:43:07.303Z,1.98
2023-05-03T19:48:13.244Z,2.17
2023-05-03T19:53:18.417Z,2.22
2023-05-03T19:58:22.619Z,1.85
2023-05-03T20:03:27.633Z,1.60
2023-05-03T20:08:32.530Z,1.95
2023-05-03T20:13:35.864Z,2.60
2023-05-03T20:18:40.739Z,1.95
2023-05-03T20:23:44.028Z,2.40
2023-05-03T20:28:47.495Z,2.33
2023-05-03T20:33:52.268Z,2.60
2023-05-03T20:38:55.804Z,6.70
2023-05-03T20:43:59.605Z,4.40
2023-05-03T20:49:05.329Z,3.08
2023-05-03T20:54:09.008Z,2.40
2023-05-03T20:59:12.303Z,2.63
2023-05-03T21:04:16.867Z,3.97
2023-05-03T21:09:20.296Z,2.20
2023-05-03T21:14:23.508Z,2.28
2023-05-03T21:19:28.602Z,1.55
2023-05-03T21:24:32.024Z,3.67
2023-05-03T21:29:35.251Z,2.47
2023-05-03T21:34:39.794Z,3.45
2023-05-03T21:39:47.845Z,2.40
2023-05-03T21:44:57.691Z,2.00
2023-05-03T21:50:03.150Z,2.20
2023-05-03T22:00:16.791Z,2.78
2023-05-03T22:05:21.842Z,2.33
2023-05-03T22:10:25.074Z,2.63
2023-05-03T22:15:28.377Z,2.95
2023-05-03T22:20:32.993Z,2.83
2023-05-03T22:25:36.307Z,2.65
2023-05-03T22:30:39.496Z,2.63
2023-05-03T22:35:44.142Z,2.80
2023-05-03T22:40:47.349Z,3.30
2023-05-03T22:45:50.521Z,2.25
2023-05-03T22:50:55.221Z,2.63
2023-05-03T22:55:58.892Z,2.58
2023-05-03T23:01:02.115Z,2.67
2023-05-03T23:06:07.282Z,2.67
2023-05-03T23:11:10.645Z,3.15
2023-05-03T23:16:14.654Z,3.22
2023-05-03T23:21:19.662Z,2.92
2023-05-03T23:26:23.284Z,3.37
2023-05-03T23:31:28.574Z,3.47
2023-05-03T23:36:36.702Z,2.70
2023-05-03T23:41:40.312Z,2.20
2023-05-03T23:46:43.997Z,2.72
2023-05-03T23:51:48.998Z,2.75
2023-05-03T23:56:53.003Z,3.17
